Hlavní strana
METAR-TAF:

METAR-TAF

Letiště :

Barkley Regional Airport

Paducah, Kentucky, Spojené státy americké

zeměpisná šířka: 37-03-23N, zeměpisná délka: 088-46-26W, výška: 125 m

Aktuální stav počasí

Zpráva byla vytvořena před 48 minutami, v 10:53 UTC
Bezvětří
Teplota -1°C
Vlhkost vzduchu 74%
Tlak 1029 hPa
Viditelnost: 16.1 km
Jasno

METAR: KPAH 071053Z AUTO 00000KT 10SM CLR M01/M05 A3038 RMK AO2 SLP287 T10111050

Čas: 05:41 (11:41 UTC)

Předpověď počasí

Zpráva byla vytvořena před 21 minutami, v 11:20 UTC
Předpověď platná od 07 v 12 UTC do 08 v 12 UTC
vítr z různých směrů 3 kt
Viditelnost: 10 km
Jasno
Od 07 v 1500 UTC
Jihojihozápadní vítr 5 kt
Viditelnost: 10 km
Skoro jasno ve výšce 25000 ft

TAF: KPAH 071120Z 0712/0812 VRB03KT P6SM SKC FM071500 21005KT P6SM FEW250

Stav a předpovědi počasí z více než 4 000 letišť (zprávy METAR a TAF).

Červené a žluté tečky na mapě představují dostupné meteorologické stanice.

Když kurzor umístíte na tečku, zobrazí se název stanice.

Pak kliknutím zobrazíte stav a předpověď počasí.

Chcete-li změnit mapu, kliknutím na zelené tlačítko se znaménkem +mapu přiblížíte, kliknutím na zelené tlačítko se znaménkem – mapu oddálíte a kliknutím na zelené šipky přejdete na sousední mapy.


METAR-TAF: